Estill, South Carolina
Current Conditions -  °F | °C
As of 12:35 AM on Sunday 21 Dec 2014 (Local Time) from KAQX Reporting Station
Haze Haze  
Wind Chill: 44°   Ceiling: 500
Heat Index: 46°   Visibility: 5mi
Dew Point: 46°   Wind: 5mph
Humidity: 100%   Direction: 50°NE
Pressure: 30.21"   Gusts: NA
Location:  32.75°N, 81.24°W
Report Text: KAQX 210535Z AUTO 05004KT 5SM BR OVC005 08/08 A3021 RMK AO2
Loading
Personal Weather Stations






























Interactive Weather Map New forecast layout! Learn more

10-Day Weather Forecast

Advertisements
Track Severe Weather on mobile